Time,TemperatureF,DewpointF,PressureIn,WindDirection,WindDirectionDegrees,WindSpeedMPH,WindSpeedGustMPH,Humidity,HourlyPrecipIn,Conditions,Clouds,dailyrainin,SoftwareType,DateUTC
2013-09-30 00:01:00,52.6,50.0,30.07,East,84,1.0,1.0,90,0.00,,,0.00,weatherlink.com 1.10,2013-09-30 04:01:00,
2013-09-30 00:17:00,52.5,50.0,30.06,East,84,1.0,1.0,90,0.00,,,0.00,weatherlink.com 1.10,2013-09-30 04:17:00,
2013-09-30 00:32:00,52.3,50.0,30.06,East,84,1.0,1.0,91,0.00,,,0.00,weatherlink.com 1.10,2013-09-30 04:32:00,
2013-09-30 00:47:00,52.2,50.0,30.06,East,84,1.0,1.0,91,0.00,,,0.00,weatherlink.com 1.10,2013-09-30 04:47:00,
2013-09-30 01:02:00,52.2,49.0,30.06,East,85,1.0,1.0,90,0.00,,,0.00,weatherlink.com 1.10,2013-09-30 05:02:00,
2013-09-30 01:17:00,52.1,50.0,30.06,East,86,1.0,1.0,91,0.00,,,0.00,weatherlink.com 1.10,2013-09-30 05:17:00,
2013-09-30 01:32:00,51.7,49.0,30.06,East,86,1.0,1.0,91,0.00,,,0.00,weatherlink.com 1.10,2013-09-30 05:32:00,
2013-09-30 01:47:00,51.6,49.0,30.06,East,84,1.0,1.0,91,0.00,,,0.00,weatherlink.com 1.10,2013-09-30 05:47:00,
2013-09-30 02:02:00,51.4,49.0,30.05,East,83,1.0,1.0,91,0.00,,,0.00,weatherlink.com 1.10,2013-09-30 06:02:00,
2013-09-30 02:17:00,51.1,49.0,30.05,East,83,0.0,1.0,91,0.00,,,0.00,weatherlink.com 1.10,2013-09-30 06:17:00,
2013-09-30 02:32:00,50.9,48.0,30.05,East,84,1.0,1.0,91,0.00,,,0.00,weatherlink.com 1.10,2013-09-30 06:32:00,
2013-09-30 02:47:00,50.7,49.0,30.05,East,83,1.0,1.0,92,0.00,,,0.00,weatherlink.com 1.10,2013-09-30 06:47:00,
2013-09-30 03:02:00,50.5,48.0,30.04,East,84,0.0,1.0,92,0.00,,,0.00,weatherlink.com 1.10,2013-09-30 07:02:00,
2013-09-30 03:17:00,50.2,48.0,30.04,East,84,1.0,1.0,92,0.00,,,0.00,weatherlink.com 1.10,2013-09-30 07:17:00,
2013-09-30 03:32:00,50.1,48.0,30.04,East,83,1.0,1.0,93,0.00,,,0.00,weatherlink.com 1.10,2013-09-30 07:32:00,
2013-09-30 03:47:00,49.9,48.0,30.04,East,83,0.0,1.0,93,0.00,,,0.00,weatherlink.com 1.10,2013-09-30 07:47:00,
2013-09-30 04:02:00,49.7,48.0,30.05,East,83,1.0,1.0,93,0.00,,,0.00,weatherlink.com 1.10,2013-09-30 08:02:00,
2013-09-30 04:17:00,49.5,48.0,30.05,East,83,1.0,1.0,93,0.00,,,0.00,weatherlink.com 1.10,2013-09-30 08:17:00,
2013-09-30 04:32:00,49.3,47.0,30.05,East,83,1.0,1.0,93,0.00,,,0.00,weatherlink.com 1.10,2013-09-30 08:32:00,
2013-09-30 04:47:00,49.2,47.0,30.05,East,84,1.0,1.0,93,0.00,,,0.00,weatherlink.com 1.10,2013-09-30 08:47:00,
2013-09-30 05:02:00,49.0,47.0,30.05,East,84,1.0,1.0,93,0.00,,,0.00,weatherlink.com 1.10,2013-09-30 09:02:00,
2013-09-30 05:17:00,48.9,47.0,30.05,East,84,1.0,1.0,93,0.00,,,0.00,weatherlink.com 1.10,2013-09-30 09:17:00,
2013-09-30 05:32:00,48.8,47.0,30.05,East,84,0.0,1.0,93,0.00,,,0.00,weatherlink.com 1.10,2013-09-30 09:32:00,
2013-09-30 05:47:00,48.7,47.0,30.05,East,83,1.0,1.0,93,0.00,,,0.00,weatherlink.com 1.10,2013-09-30 09:47:00,
2013-09-30 06:02:00,48.5,47.0,30.05,East,83,1.0,1.0,93,0.00,,,0.00,weatherlink.com 1.10,2013-09-30 10:02:00,
2013-09-30 06:17:00,48.4,47.0,30.05,East,84,1.0,1.0,94,0.00,,,0.00,weatherlink.com 1.10,2013-09-30 10:17:00,
2013-09-30 06:32:00,48.3,47.0,30.06,East,84,1.0,1.0,94,0.00,,,0.00,weatherlink.com 1.10,2013-09-30 10:32:00,
2013-09-30 06:47:00,48.3,47.0,30.06,East,82,1.0,1.0,94,0.00,,,0.00,weatherlink.com 1.10,2013-09-30 10:47:00,
2013-09-30 07:02:00,48.4,47.0,30.06,East,82,1.0,1.0,94,0.00,,,0.00,weatherlink.com 1.10,2013-09-30 11:02:00,
2013-09-30 07:17:00,48.5,47.0,30.07,East,82,0.0,1.0,93,0.00,,,0.00,weatherlink.com 1.10,2013-09-30 11:17:00,
2013-09-30 07:32:00,48.7,47.0,30.07,East,82,1.0,1.0,93,0.00,,,0.00,weatherlink.com 1.10,2013-09-30 11:32:00,
2013-09-30 07:47:00,48.9,47.0,30.07,East,82,1.0,1.0,93,0.00,,,0.00,weatherlink.com 1.10,2013-09-30 11:47:00,
2013-09-30 08:02:00,49.3,47.0,30.07,East,82,1.0,1.0,93,0.00,,,0.00,weatherlink.com 1.10,2013-09-30 12:02:00,
2013-09-30 08:17:00,49.7,48.0,30.07,East,81,0.0,1.0,93,0.00,,,0.00,weatherlink.com 1.10,2013-09-30 12:17:00,
2013-09-30 08:32:00,50.4,49.0,30.07,East,81,1.0,1.0,93,0.00,,,0.00,weatherlink.com 1.10,2013-09-30 12:32:00,
2013-09-30 08:47:00,51.6,49.0,30.06,SE,131,0.0,1.0,91,0.00,,,0.00,weatherlink.com 1.10,2013-09-30 12:47:00,
2013-09-30 09:02:00,52.9,50.0,30.07,ENE,66,0.0,2.0,89,0.00,,,0.00,weatherlink.com 1.10,2013-09-30 13:02:00,
2013-09-30 09:17:00,53.3,50.0,30.06,East,96,1.0,1.0,88,0.00,,,0.00,weatherlink.com 1.10,2013-09-30 13:17:00,
2013-09-30 09:32:00,54.6,50.0,30.06,East,96,0.0,1.0,84,0.00,,,0.00,weatherlink.com 1.10,2013-09-30 13:32:00,
2013-09-30 09:47:00,55.8,51.0,30.06,East,98,0.0,1.0,84,0.00,,,0.00,weatherlink.com 1.10,2013-09-30 13:47:00,
2013-09-30 10:02:00,56.7,51.0,30.06,SE,124,0.0,1.0,80,0.00,,,0.00,weatherlink.com 1.10,2013-09-30 14:02:00,
2013-09-30 10:17:00,57.6,52.0,30.05,ESE,121,0.0,0.0,82,0.00,,,0.00,weatherlink.com 1.10,2013-09-30 14:17:00,
2013-09-30 10:33:00,58.6,52.0,30.05,ESE,113,1.0,1.0,78,0.00,,,0.00,weatherlink.com 1.10,2013-09-30 14:33:00,
2013-09-30 10:48:00,59.6,52.0,30.05,SE,138,0.0,1.0,76,0.00,,,0.00,weatherlink.com 1.10,2013-09-30 14:48:00,
2013-09-30 11:03:00,61.4,54.0,30.04,ESE,103,0.0,1.0,76,0.00,,,0.00,weatherlink.com 1.10,2013-09-30 15:03:00,
2013-09-30 11:18:00,62.6,54.0,30.03,WNW,301,1.0,3.0,73,0.00,,,0.00,weatherlink.com 1.10,2013-09-30 15:18:00,
2013-09-30 11:33:00,62.0,53.0,30.03,WNW,292,1.0,4.0,72,0.00,,,0.00,weatherlink.com 1.10,2013-09-30 15:33:00,
2013-09-30 11:48:00,60.2,53.0,30.03,NW,310,1.0,1.0,78,0.00,,,0.00,weatherlink.com 1.10,2013-09-30 15:48:00,
2013-09-30 12:03:00,59.6,52.0,30.02,NW,319,0.0,3.0,77,0.00,,,0.00,weatherlink.com 1.10,2013-09-30 16:03:00,
2013-09-30 12:18:00,61.3,53.0,30.02,NW,319,3.0,5.0,75,0.00,,,0.00,weatherlink.com 1.10,2013-09-30 16:18:00,
2013-09-30 12:33:00,64.3,54.0,30.01,NE,40,2.0,2.0,70,0.00,,,0.00,weatherlink.com 1.10,2013-09-30 16:33:00,
2013-09-30 12:48:00,65.1,54.0,30.01,ESE,121,1.0,2.0,68,0.00,,,0.00,weatherlink.com 1.10,2013-09-30 16:48:00,
2013-09-30 13:03:00,65.4,55.0,30.01,NW,326,2.0,3.0,70,0.00,,,0.00,weatherlink.com 1.10,2013-09-30 17:03:00,
2013-09-30 13:18:00,66.0,54.0,30.00,North,3,1.0,2.0,65,0.00,,,0.00,weatherlink.com 1.10,2013-09-30 17:18:00,
2013-09-30 13:33:00,64.2,53.0,29.99,NW,316,0.0,4.0,67,0.00,,,0.00,weatherlink.com 1.10,2013-09-30 17:33:00,
2013-09-30 13:48:00,63.4,54.0,29.99,NNE,32,0.0,1.0,72,0.00,,,0.00,weatherlink.com 1.10,2013-09-30 17:48:00,
2013-09-30 14:03:00,65.1,55.0,29.99,WNW,284,0.0,2.0,70,0.00,,,0.00,weatherlink.com 1.10,2013-09-30 18:03:00,
2013-09-30 14:18:00,66.2,54.0,29.99,North,349,3.0,6.0,64,0.00,,,0.00,weatherlink.com 1.10,2013-09-30 18:18:00,
2013-09-30 14:33:00,63.9,54.0,29.99,ENE,71,0.0,4.0,69,0.00,,,0.00,weatherlink.com 1.10,2013-09-30 18:33:00,
2013-09-30 14:48:00,64.7,55.0,29.98,ESE,121,0.0,0.0,71,0.00,,,0.00,weatherlink.com 1.10,2013-09-30 18:48:00,
2013-09-30 15:03:00,66.7,55.0,29.98,SSE,149,0.0,1.0,66,0.00,,,0.00,weatherlink.com 1.10,2013-09-30 19:03:00,
2013-09-30 15:18:00,67.5,56.0,29.98,South,176,0.0,4.0,66,0.00,,,0.00,weatherlink.com 1.10,2013-09-30 19:18:00,
2013-09-30 15:33:00,65.3,54.0,29.97,NW,307,2.0,3.0,66,0.00,,,0.00,weatherlink.com 1.10,2013-09-30 19:33:00,
2013-09-30 15:48:00,64.8,54.0,29.98,WNW,283,1.0,3.0,68,0.00,,,0.00,weatherlink.com 1.10,2013-09-30 19:48:00,
2013-09-30 16:03:00,64.8,53.0,29.97,NW,311,1.0,3.0,66,0.00,,,0.00,weatherlink.com 1.10,2013-09-30 20:03:00,
2013-09-30 16:18:00,64.8,53.0,29.97,NNW,328,4.0,6.0,66,0.00,,,0.00,weatherlink.com 1.10,2013-09-30 20:18:00,
2013-09-30 16:33:00,65.1,54.0,29.96,West,276,0.0,2.0,67,0.00,,,0.00,weatherlink.com 1.10,2013-09-30 20:33:00,
2013-09-30 16:48:00,65.0,54.0,29.97,NE,56,0.0,3.0,67,0.00,,,0.00,weatherlink.com 1.10,2013-09-30 20:48:00,
2013-09-30 17:03:00,64.6,54.0,29.97,SE,141,0.0,0.0,69,0.00,,,0.00,weatherlink.com 1.10,2013-09-30 21:03:00,
2013-09-30 17:18:00,64.3,54.0,29.97,SE,129,0.0,0.0,70,0.00,,,0.00,weatherlink.com 1.10,2013-09-30 21:18:00,
2013-09-30 17:33:00,63.6,54.0,29.97,SE,130,0.0,0.0,72,0.00,,,0.00,weatherlink.com 1.10,2013-09-30 21:33:00,
2013-09-30 17:48:00,62.8,54.0,29.97,ESE,121,0.0,0.0,73,0.00,,,0.00,weatherlink.com 1.10,2013-09-30 21:48:00,
2013-09-30 18:03:00,61.5,54.0,29.97,ESE,121,0.0,0.0,77,0.00,,,0.00,weatherlink.com 1.10,2013-09-30 22:03:00,
2013-09-30 18:18:00,60.0,54.0,29.97,ESE,121,0.0,0.0,80,0.00,,,0.00,weatherlink.com 1.10,2013-09-30 22:18:00,
2013-09-30 18:33:00,58.5,53.0,29.97,ESE,121,0.0,0.0,83,0.00,,,0.00,weatherlink.com 1.10,2013-09-30 22:33:00,
2013-09-30 18:48:00,57.3,53.0,29.97,ESE,122,0.0,0.0,86,0.00,,,0.00,weatherlink.com 1.10,2013-09-30 22:48:00,
2013-09-30 19:03:00,56.2,52.0,29.97,ESE,120,0.0,1.0,86,0.00,,,0.00,weatherlink.com 1.10,2013-09-30 23:03:00,
2013-09-30 19:18:00,55.4,52.0,29.97,ESE,121,0.0,1.0,87,0.00,,,0.00,weatherlink.com 1.10,2013-09-30 23:18:00,
2013-09-30 19:33:00,54.8,51.0,29.98,ESE,120,1.0,1.0,87,0.00,,,0.00,weatherlink.com 1.10,2013-09-30 23:33:00,
2013-09-30 19:48:00,54.2,51.0,29.98,ESE,120,1.0,1.0,88,0.00,,,0.00,weatherlink.com 1.10,2013-09-30 23:48:00,
2013-09-30 20:03:00,53.9,51.0,29.98,ESE,120,0.0,1.0,89,0.00,,,0.00,weatherlink.com 1.10,2013-10-01 00:03:00,
2013-09-30 20:18:00,53.6,51.0,29.98,ESE,120,1.0,1.0,89,0.00,,,0.00,weatherlink.com 1.10,2013-10-01 00:18:00,
2013-09-30 20:33:00,53.2,50.0,29.98,ESE,120,1.0,1.0,90,0.00,,,0.00,weatherlink.com 1.10,2013-10-01 00:33:00,
2013-09-30 20:48:00,53.1,50.0,29.99,ESE,120,1.0,1.0,90,0.00,,,0.00,weatherlink.com 1.10,2013-10-01 00:48:00,
2013-09-30 21:03:00,53.0,50.0,29.99,ESE,120,0.0,1.0,90,0.00,,,0.00,weatherlink.com 1.10,2013-10-01 01:03:00,
2013-09-30 21:18:00,52.9,50.0,29.99,ESE,120,1.0,1.0,91,0.00,,,0.00,weatherlink.com 1.10,2013-10-01 01:18:00,
2013-09-30 21:33:00,52.8,50.0,29.99,ESE,120,1.0,1.0,91,0.00,,,0.00,weatherlink.com 1.10,2013-10-01 01:33:00,
2013-09-30 21:48:00,52.8,50.0,29.99,ESE,118,1.0,1.0,91,0.00,,,0.00,weatherlink.com 1.10,2013-10-01 01:48:00,
2013-09-30 22:04:00,52.8,50.0,29.99,ESE,118,1.0,1.0,91,0.00,,,0.00,weatherlink.com 1.10,2013-10-01 02:04:00,
2013-09-30 22:19:00,53.1,51.0,29.99,ESE,118,1.0,1.0,91,0.00,,,0.00,weatherlink.com 1.10,2013-10-01 02:19:00,
2013-09-30 22:34:00,52.9,50.0,29.98,ESE,118,1.0,1.0,90,0.00,,,0.00,weatherlink.com 1.10,2013-10-01 02:34:00,
2013-09-30 22:49:00,52.6,50.0,29.98,ESE,117,1.0,1.0,90,0.00,,,0.00,weatherlink.com 1.10,2013-10-01 02:49:00,
2013-09-30 23:04:00,52.4,50.0,29.97,ESE,117,1.0,1.0,91,0.00,,,0.00,weatherlink.com 1.10,2013-10-01 03:04:00,
2013-09-30 23:19:00,52.3,50.0,29.97,ESE,114,1.0,1.0,91,0.00,,,0.00,weatherlink.com 1.10,2013-10-01 03:19:00,
2013-09-30 23:34:00,52.4,50.0,29.97,ESE,107,1.0,1.0,91,0.00,,,0.00,weatherlink.com 1.10,2013-10-01 03:34:00,
2013-09-30 23:49:00,52.3,50.0,29.98,East,94,1.0,1.0,91,0.00,,,0.00,weatherlink.com 1.10,2013-10-01 03:49:00,